Aérodrome :
LOGIN :

S'inscrire | Disclaimer

   EN    FR    IT 

 










Légende :    VFR   VFR Marginal   IFR   IFR Intensif   IFR Très Intensif
Visi : 
Plafond : 
>= 8 km
>= 3000ft
5 à 8 km
1000 à 3000 ft
1500m à 5 km
500 à 1000 ft
800 à 1500m
200 à 500 ft
< 800m
< 200 ft
Symboles :   Orages  Brouillard  Fortes neiges  Fortes précipitations  Vent > 20 kt
SIGMETs :   Divers  Orages  Givrage  Turbulence  Onde Orograph.  Cendres Volcan.







- Altitude de l'aérodrome : 195 ft
- Voir les cartes d'approche


LFMY - Salon de Provence

DERNIER METAR :
  • 211930Z AUTO 07005KT 9999 ///TCU 27/17 Q1016

METARs EXPIRÉS :
  • 211900Z AUTO VRB01KT CAVOK 27/17 Q1015
  • 211830Z AUTO 00000KT 9999 ///CB 29/16 Q1015
  • 211800Z AUTO 23003KT 9999 ///TCU 29/15 Q1015
  • 211730Z AUTO 21005KT 9999 TS ///CB 30/16 Q1014
  • 211700Z AUTO 21006KT 9999 ///CB 31/16 Q1014

TAF TAF LFMY
Valide du 21 à 03h jusqu'au 22 à 03h UTC


210419Z 2103/2203 VRB02KT CAVOK
BECMG 2111/2113 21010KT
PROB30
TEMPO 2113/2120 SHRA SCT060CB
Pas de NOTAMs connus pour ce terrain.



MET'MAP, la Météo Aéronautique d'un coup d'oeil ! - Copyright ORBIFLY Décembre 2007 - Disclaimer

ORBIFLY MET'MAP TEAM :

Programmation & Développement : Alexandra Zaïnal
Conception & Développement : Baudouin d'Aumeries
Co-Programmation & Développement : Marc-Olivier Méhu
Soutien technique & logistique : Manuel Goepfert

Contact : metmap@orbifly.com




SOURCES & CREDITS :

   NOAA